Time;durP1;ratioP1;P1;durP2;ratioP2;P2;SDS_P1;SDS_P2;PMS_P1;PMS_P2;Temp;Humidity;BMP_temperature;BMP_pressure;BME280_temperature;BME280_humidity;BME280_pressure;Samples;Min_cycle;Max_cycle;Signal;HPM_P1;HPM_P2
2023/12/27 15:53:55;;;;;;;5.82;2.92;;;;;;;;;;6089729;22;1416491;-64
2023/12/27 15:56:30;;;;;;;7.82;2.90;;;;;;;;;;6185712;23;20021;-64
2023/12/27 15:58:59;;;;;;;7.05;3.08;;;;;;;;;;6185271;23;20017;-64
2023/12/27 16:01:27;;;;;;;5.45;2.83;;;;;;;;;;6186437;23;20441;-63
2023/12/27 16:03:56;;;;;;;5.45;2.83;;;;;;;;;;6186007;23;20083;-63
2023/12/27 16:06:32;;;;;;;7.97;2.65;;;;;;;;;;6185430;23;20017;-64
2023/12/27 16:09:00;;;;;;;10.50;3.65;;;;;;;;;;6185977;23;20025;-64
2023/12/27 16:11:28;;;;;;;7.68;3.70;;;;;;;;;;6186716;23;20492;-64
2023/12/27 16:13:55;;;;;;;6.35;3.35;;;;;;;;;;6186512;23;20020;-64
2023/12/27 16:16:23;;;;;;;6.15;3.95;;;;;;;;;;6184966;23;20447;-64
2023/12/27 16:18:51;;;;;;;6.65;3.30;;;;;;;;;;6186096;23;20021;-64
2023/12/27 16:21:19;;;;;;;5.97;3.15;;;;;;;;;;6186067;23;20017;-64
2023/12/27 16:23:47;;;;;;;9.45;3.50;;;;;;;;;;6187293;23;20037;-64
2023/12/27 16:26:16;;;;;;;4.40;2.70;;;;;;;;;;6180871;23;20354;-63
2023/12/27 16:28:47;;;;;;;8.20;2.92;;;;;;;;;;6178922;23;20055;-63
2023/12/27 16:31:15;;;;;;;4.18;2.75;;;;;;;;;;6180337;23;20021;-69
2023/12/27 16:33:43;;;;;;;5.00;2.97;;;;;;;;;;6181030;23;20060;-64
2023/12/27 16:36:11;;;;;;;5.88;2.90;;;;;;;;;;6180712;23;20458;-64
2023/12/27 16:38:40;;;;;;;6.05;3.28;;;;;;;;;;6181096;23;20048;-66
2023/12/27 16:41:08;;;;;;;10.05;2.92;;;;;;;;;;6181700;23;20032;-63
2023/12/27 16:43:41;;;;;;;3.97;2.83;;;;;;;;;;6180940;23;20727;-63
2023/12/27 16:46:10;;;;;;;5.95;2.53;;;;;;;;;;6180619;23;20462;-64
2023/12/27 16:48:46;;;;;;;3.75;2.30;;;;;;;;;;6180535;23;20025;-64
2023/12/27 16:51:17;;;;;;;6.50;2.67;;;;;;;;;;6179007;23;20494;-64
2023/12/27 16:53:44;;;;;;;4.82;2.70;;;;;;;;;;6180712;23;20063;-64
2023/12/27 16:56:13;;;;;;;5.05;3.08;;;;;;;;;;6180485;23;20021;-64
2023/12/27 16:58:41;;;;;;;5.72;2.75;;;;;;;;;;6180115;23;20044;-63
2023/12/27 17:01:10;;;;;;;7.15;3.22;;;;;;;;;;6180222;23;20021;-64
2023/12/27 17:03:38;;;;;;;7.10;4.00;;;;;;;;;;6180324;23;20455;-64
2023/12/27 17:06:06;;;;;;;6.60;3.75;;;;;;;;;;6180348;23;20451;-64
2023/12/27 17:08:34;;;;;;;6.85;4.00;;;;;;;;;;6180330;23;20677;-64
2023/12/27 17:11:01;;;;;;;6.03;3.70;;;;;;;;;;6180395;23;20084;-64
2023/12/27 17:13:29;;;;;;;5.35;3.35;;;;;;;;;;6178550;23;20031;-65
2023/12/27 17:15:57;;;;;;;4.97;3.30;;;;;;;;;;6178740;23;20025;-64
2023/12/27 17:18:24;;;;;;;6.88;3.50;;;;;;;;;;6178490;23;20043;-65
2023/12/27 17:20:52;;;;;;;6.43;4.00;;;;;;;;;;6178068;23;20071;-65
2023/12/27 17:23:20;;;;;;;7.78;4.20;;;;;;;;;;6179361;23;20021;-65
2023/12/27 17:25:48;;;;;;;7.57;3.70;;;;;;;;;;6179381;23;20024;-65
2023/12/27 17:28:16;;;;;;;8.05;4.90;;;;;;;;;;6179824;23;20092;-64
2023/12/27 17:30:43;;;;;;;11.57;5.50;;;;;;;;;;6178842;23;20083;-64
2023/12/27 17:33:11;;;;;;;13.18;6.38;;;;;;;;;;6180461;23;20053;-64
2023/12/27 17:35:39;;;;;;;11.13;5.18;;;;;;;;;;6180385;23;20398;-65
2023/12/27 17:38:06;;;;;;;13.73;5.95;;;;;;;;;;6179971;23;20055;-64
2023/12/27 17:40:34;;;;;;;14.00;6.22;;;;;;;;;;6180188;23;20017;-64
2023/12/27 17:43:02;;;;;;;14.48;7.40;;;;;;;;;;6179199;23;20013;-64
2023/12/27 17:45:30;;;;;;;13.95;5.95;;;;;;;;;;6179819;23;20655;-63
2023/12/27 17:47:58;;;;;;;7.07;4.00;;;;;;;;;;6180372;23;20466;-64
2023/12/27 17:50:26;;;;;;;7.35;4.20;;;;;;;;;;6180341;23;20047;-62
2023/12/27 17:52:53;;;;;;;8.48;4.25;;;;;;;;;;6180163;23;20017;-62
2023/12/27 17:55:21;;;;;;;7.20;4.20;;;;;;;;;;6179574;23;20344;-62
2023/12/27 17:57:49;;;;;;;7.97;5.05;;;;;;;;;;6179115;23;20207;-62
2023/12/27 18:00:17;;;;;;;8.80;4.47;;;;;;;;;;6179072;23;20039;-62
2023/12/27 18:02:44;;;;;;;8.27;4.32;;;;;;;;;;6179024;23;20048;-62
2023/12/27 18:05:12;;;;;;;10.95;4.55;;;;;;;;;;6178679;23;20017;-62
2023/12/27 18:07:40;;;;;;;8.52;4.53;;;;;;;;;;6178238;23;20040;-62
2023/12/27 18:10:07;;;;;;;9.25;5.20;;;;;;;;;;6178936;23;20071;-62
2023/12/27 18:12:35;;;;;;;7.82;4.90;;;;;;;;;;6177273;23;20049;-62
2023/12/27 18:15:03;;;;;;;8.82;5.38;;;;;;;;;;6179228;23;20048;-62
2023/12/27 18:17:31;;;;;;;8.40;5.50;;;;;;;;;;6178245;23;20085;-63
2023/12/27 18:19:59;;;;;;;11.10;5.47;;;;;;;;;;6178615;23;20035;-62
2023/12/27 18:22:26;;;;;;;10.98;5.50;;;;;;;;;;6178235;23;20392;-61
2023/12/27 18:24:54;;;;;;;9.35;5.28;;;;;;;;;;6178712;23;20455;-62
2023/12/27 18:27:24;;;;;;;10.25;5.68;;;;;;;;;;6178752;23;20028;-62
2023/12/27 18:29:52;;;;;;;9.18;5.25;;;;;;;;;;6178607;23;20031;-62
2023/12/27 18:32:20;;;;;;;10.50;5.45;;;;;;;;;;6178344;23;20511;-62
2023/12/27 18:34:47;;;;;;;9.45;5.13;;;;;;;;;;6178978;23;20071;-63
2023/12/27 18:37:15;;;;;;;7.95;5.07;;;;;;;;;;6177517;23;20047;-62
2023/12/27 18:39:43;;;;;;;7.78;5.18;;;;;;;;;;6179616;23;20021;-62
2023/12/27 18:42:11;;;;;;;12.63;5.60;;;;;;;;;;6178137;23;20104;-62
2023/12/27 18:44:42;;;;;;;7.85;5.03;;;;;;;;;;6179322;23;20406;-62
2023/12/27 18:47:10;;;;;;;10.63;5.60;;;;;;;;;;6178153;23;20451;-62
2023/12/27 18:49:37;;;;;;;10.80;5.38;;;;;;;;;;6179697;23;20074;-62
2023/12/27 18:52:09;;;;;;;10.88;6.07;;;;;;;;;;6179152;23;20048;-62
2023/12/27 18:54:36;;;;;;;9.65;6.18;;;;;;;;;;6178081;23;20029;-62
2023/12/27 18:57:04;;;;;;;16.13;9.48;;;;;;;;;;6179854;23;20502;-62
2023/12/27 18:59:32;;;;;;;14.70;8.90;;;;;;;;;;6178506;23;20085;-62
2023/12/27 19:02:00;;;;;;;15.18;9.48;;;;;;;;;;6178424;23;20017;-62
2023/12/27 19:04:27;;;;;;;13.82;8.77;;;;;;;;;;6177487;23;20375;-62
2023/12/27 19:06:55;;;;;;;14.55;8.13;;;;;;;;;;6177804;23;20332;-62
2023/12/27 19:09:23;;;;;;;10.07;5.93;;;;;;;;;;6179362;23;20028;-62
2023/12/27 19:11:50;;;;;;;9.10;5.75;;;;;;;;;;6179924;23;20021;-62
2023/12/27 19:14:19;;;;;;;11.15;5.63;;;;;;;;;;6180038;23;20025;-62
2023/12/27 19:16:47;;;;;;;9.73;6.20;;;;;;;;;;6179664;23;20044;-62
2023/12/27 19:19:16;;;;;;;7.82;5.20;;;;;;;;;;6177403;23;20025;-62
2023/12/27 19:21:50;;;;;;;7.75;5.10;;;;;;;;;;6179646;23;20083;-62
2023/12/27 19:24:18;;;;;;;8.65;5.22;;;;;;;;;;6179420;23;20021;-62
2023/12/27 19:26:46;;;;;;;8.18;4.72;;;;;;;;;;6179681;23;20347;-62
2023/12/27 19:29:13;;;;;;;7.25;4.35;;;;;;;;;;6179506;23;20024;-62
2023/12/27 19:31:41;;;;;;;10.95;4.57;;;;;;;;;;6179067;23;20027;-63
2023/12/27 19:34:09;;;;;;;8.02;4.57;;;;;;;;;;6177936;23;20028;-62
2023/12/27 19:36:37;;;;;;;7.57;4.32;;;;;;;;;;6179629;23;20017;-61
2023/12/27 19:39:04;;;;;;;7.70;4.40;;;;;;;;;;6179585;23;20016;-61
2023/12/27 19:41:32;;;;;;;7.00;4.25;;;;;;;;;;6179907;23;20390;-61
2023/12/27 19:44:02;;;;;;;8.52;5.05;;;;;;;;;;6179089;23;20032;-62
2023/12/27 19:46:33;;;;;;;10.90;5.18;;;;;;;;;;6178200;23;20451;-62
2023/12/27 19:49:00;;;;;;;9.50;4.82;;;;;;;;;;6179911;23;20319;-62
2023/12/27 19:51:29;;;;;;;9.20;4.45;;;;;;;;;;6178745;23;20027;-61
2023/12/27 19:53:57;;;;;;;9.32;4.47;;;;;;;;;;6179209;23;20041;-61
2023/12/27 19:56:25;;;;;;;8.82;4.60;;;;;;;;;;6176221;23;20021;-61
2023/12/27 19:58:53;;;;;;;8.07;4.63;;;;;;;;;;6180376;23;20366;-61
2023/12/27 20:01:25;;;;;;;11.25;4.45;;;;;;;;;;6186260;23;20017;-59
2023/12/27 20:03:53;;;;;;;9.27;4.65;;;;;;;;;;6184462;23;20371;-60
2023/12/27 20:06:21;;;;;;;7.82;4.93;;;;;;;;;;6186102;23;20027;-59
2023/12/27 20:08:48;;;;;;;8.30;4.85;;;;;;;;;;6186346;23;20326;-60
2023/12/27 20:11:16;;;;;;;7.97;4.63;;;;;;;;;;6186487;23;20462;-60
2023/12/27 20:13:43;;;;;;;10.57;5.43;;;;;;;;;;6186421;23;20017;-60
2023/12/27 20:16:11;;;;;;;10.25;5.07;;;;;;;;;;6186536;23;20083;-60
2023/12/27 20:18:39;;;;;;;9.50;4.95;;;;;;;;;;6184866;23;20044;-60
2023/12/27 20:21:07;;;;;;;8.52;4.90;;;;;;;;;;6186339;23;20096;-60
2023/12/27 20:23:38;;;;;;;9.48;5.30;;;;;;;;;;6186259;23;20019;-60
2023/12/27 20:26:07;;;;;;;8.90;4.80;;;;;;;;;;6186209;23;20064;-60
2023/12/27 20:28:35;;;;;;;10.95;5.68;;;;;;;;;;6186108;23;20096;-60
2023/12/27 20:31:03;;;;;;;8.90;5.50;;;;;;;;;;6186304;23;20021;-60
2023/12/27 20:33:32;;;;;;;11.38;5.13;;;;;;;;;;6186285;23;20017;-60
2023/12/27 20:36:00;;;;;;;8.30;4.88;;;;;;;;;;6184685;23;20023;-60
2023/12/27 20:38:28;;;;;;;7.85;4.78;;;;;;;;;;6184752;23;20021;-60
2023/12/27 20:40:55;;;;;;;10.32;5.20;;;;;;;;;;6186270;23;20021;-60
2023/12/27 20:43:23;;;;;;;8.27;5.00;;;;;;;;;;6184341;23;20056;-61
2023/12/27 20:45:51;;;;;;;10.43;4.97;;;;;;;;;;6185988;23;20308;-60
2023/12/27 20:48:19;;;;;;;9.68;5.43;;;;;;;;;;6186100;23;20017;-61
2023/12/27 20:50:51;;;;;;;10.18;5.30;;;;;;;;;;6186087;23;20044;-61
2023/12/27 20:53:18;;;;;;;8.73;5.82;;;;;;;;;;6185821;23;20513;-61
2023/12/27 20:55:46;;;;;;;9.95;5.88;;;;;;;;;;6185967;23;20016;-61
2023/12/27 20:58:14;;;;;;;12.15;5.45;;;;;;;;;;6185873;23;20025;-61
2023/12/27 21:00:41;;;;;;;8.88;4.28;;;;;;;;;;6185985;23;20028;-61
2023/12/27 21:03:09;;;;;;;8.38;4.75;;;;;;;;;;6186041;23;20864;-61
2023/12/27 21:05:37;;;;;;;9.85;5.18;;;;;;;;;;6185741;23;20498;-61
2023/12/27 21:08:05;;;;;;;8.48;5.22;;;;;;;;;;6185740;23;20498;-61
2023/12/27 21:10:32;;;;;;;11.27;5.80;;;;;;;;;;6185713;23;20435;-61
2023/12/27 21:13:00;;;;;;;9.65;5.45;;;;;;;;;;6185587;23;20039;-61
2023/12/27 21:15:27;;;;;;;10.05;5.38;;;;;;;;;;6185799;23;20017;-61
2023/12/27 21:17:55;;;;;;;10.35;5.47;;;;;;;;;;6184484;23;20013;-61
2023/12/27 21:20:24;;;;;;;7.82;5.10;;;;;;;;;;6183990;23;20403;-61
2023/12/27 21:22:51;;;;;;;10.20;5.35;;;;;;;;;;6186021;23;20013;-61
2023/12/27 21:25:19;;;;;;;10.30;5.50;;;;;;;;;;6184244;23;20092;-61
2023/12/27 21:27:46;;;;;;;10.23;5.88;;;;;;;;;;6185508;23;20020;-61
2023/12/27 21:30:14;;;;;;;11.68;5.35;;;;;;;;;;6184110;23;20025;-61
2023/12/27 21:32:46;;;;;;;10.23;5.70;;;;;;;;;;6185635;23;20407;-62
2023/12/27 21:35:14;;;;;;;10.02;4.85;;;;;;;;;;6185549;23;20100;-60
2023/12/27 21:37:42;;;;;;;13.07;7.82;;;;;;;;;;6185701;23;20021;-59
2023/12/27 21:40:09;;;;;;;13.07;7.03;;;;;;;;;;6185591;23;20021;-60
2023/12/27 21:42:37;;;;;;;11.05;6.68;;;;;;;;;;6185638;23;20013;-60
2023/12/27 21:45:05;;;;;;;13.50;7.00;;;;;;;;;;6185176;23;20513;-60
2023/12/27 21:47:32;;;;;;;14.07;7.05;;;;;;;;;;6185626;23;20449;-60
2023/12/27 21:50:00;;;;;;;13.07;6.78;;;;;;;;;;6185984;23;20025;-60
2023/12/27 21:52:28;;;;;;;14.77;8.48;;;;;;;;;;6185481;23;20013;-60
2023/12/27 21:54:55;;;;;;;14.77;8.45;;;;;;;;;;6183652;23;20036;-60
2023/12/27 21:57:23;;;;;;;17.73;8.35;;;;;;;;;;6185469;23;20105;-60
2023/12/27 21:59:51;;;;;;;16.85;8.57;;;;;;;;;;6185446;23;20505;-60
2023/12/27 22:02:18;;;;;;;16.27;9.75;;;;;;;;;;6183999;23;20013;-60
2023/12/27 22:04:46;;;;;;;18.42;10.02;;;;;;;;;;6185238;23;20017;-60
2023/12/27 22:07:14;;;;;;;18.38;11.00;;;;;;;;;;6185440;23;20063;-60
2023/12/27 22:09:43;;;;;;;18.80;10.43;;;;;;;;;;6185406;23;20013;-60
2023/12/27 22:12:10;;;;;;;17.17;10.38;;;;;;;;;;6185544;23;20489;-60
2023/12/27 22:14:38;;;;;;;15.75;9.55;;;;;;;;;;6185315;23;20017;-60
2023/12/27 22:17:06;;;;;;;15.55;9.10;;;;;;;;;;6185364;23;20020;-60
2023/12/27 22:19:35;;;;;;;13.40;8.27;;;;;;;;;;6185027;23;20032;-60
2023/12/27 22:22:03;;;;;;;17.45;9.88;;;;;;;;;;6185164;23;20091;-60
2023/12/27 22:24:30;;;;;;;15.73;8.90;;;;;;;;;;6185098;23;20025;-60
2023/12/27 22:26:58;;;;;;;14.80;8.52;;;;;;;;;;6185435;23;20017;-60
2023/12/27 22:29:25;;;;;;;13.07;8.48;;;;;;;;;;6185171;23;20509;-60
2023/12/27 22:31:53;;;;;;;15.18;8.30;;;;;;;;;;6185053;23;20391;-60
2023/12/27 22:34:21;;;;;;;12.48;7.28;;;;;;;;;;6185280;23;20017;-60
2023/12/27 22:36:48;;;;;;;16.08;8.13;;;;;;;;;;6185266;23;20027;-60
2023/12/27 22:39:17;;;;;;;10.77;7.20;;;;;;;;;;6185098;23;20024;-60
2023/12/27 22:41:45;;;;;;;11.60;7.03;;;;;;;;;;6185162;23;20076;-60
2023/12/27 22:44:12;;;;;;;10.32;6.53;;;;;;;;;;6185168;23;20092;-60
2023/12/27 22:46:40;;;;;;;11.80;7.40;;;;;;;;;;6185303;23;20096;-60
2023/12/27 22:49:07;;;;;;;11.10;6.82;;;;;;;;;;6185027;23;20025;-60
2023/12/27 22:51:35;;;;;;;13.02;6.43;;;;;;;;;;6185138;23;20067;-60
2023/12/27 22:54:02;;;;;;;11.52;6.13;;;;;;;;;;6184691;23;20051;-60
2023/12/27 22:56:30;;;;;;;14.40;7.40;;;;;;;;;;6185073;23;20451;-60
2023/12/27 22:58:58;;;;;;;13.73;6.97;;;;;;;;;;6185140;23;20013;-60
2023/12/27 23:01:25;;;;;;;12.77;7.32;;;;;;;;;;6184945;23;20017;-60
2023/12/27 23:03:53;;;;;;;16.88;7.47;;;;;;;;;;6183056;23;20024;-59
2023/12/27 23:06:21;;;;;;;12.75;6.80;;;;;;;;;;6184791;23;20017;-60
2023/12/27 23:08:49;;;;;;;21.48;8.80;;;;;;;;;;6184977;23;20510;-60
2023/12/27 23:11:16;;;;;;;16.25;8.68;;;;;;;;;;6184781;23;20375;-60
2023/12/27 23:13:44;;;;;;;15.40;7.97;;;;;;;;;;6185047;23;20095;-60
2023/12/27 23:16:12;;;;;;;16.88;8.77;;;;;;;;;;6185183;23;20108;-60
2023/12/27 23:18:39;;;;;;;18.52;8.30;;;;;;;;;;6184823;23;20037;-60
2023/12/27 23:21:07;;;;;;;16.00;8.13;;;;;;;;;;6184672;23;20017;-60
2023/12/27 23:23:35;;;;;;;14.23;8.27;;;;;;;;;;6183847;23;20013;-60
2023/12/27 23:26:02;;;;;;;13.65;7.07;;;;;;;;;;6185072;23;20029;-59
2023/12/27 23:28:30;;;;;;;16.77;7.95;;;;;;;;;;6184850;23;20112;-60
2023/12/27 23:30:58;;;;;;;16.02;7.68;;;;;;;;;;6184686;23;20025;-60
2023/12/27 23:33:25;;;;;;;13.23;7.65;;;;;;;;;;6184701;23;20346;-60
2023/12/27 23:35:53;;;;;;;13.85;7.75;;;;;;;;;;6186218;23;20040;-60
2023/12/27 23:38:21;;;;;;;12.15;7.00;;;;;;;;;;6186697;23;20017;-60
2023/12/27 23:40:48;;;;;;;12.65;6.50;;;;;;;;;;6186696;23;20017;-61
2023/12/27 23:43:16;;;;;;;12.45;7.05;;;;;;;;;;6187220;23;20040;-60
2023/12/27 23:45:43;;;;;;;12.85;7.47;;;;;;;;;;6186650;23;20071;-60
2023/12/27 23:48:11;;;;;;;12.80;6.93;;;;;;;;;;6186417;23;20527;-61
2023/12/27 23:50:39;;;;;;;12.30;7.47;;;;;;;;;;6186780;23;20466;-60
2023/12/27 23:53:07;;;;;;;12.73;7.32;;;;;;;;;;6186303;23;20013;-60
2023/12/27 23:55:35;;;;;;;12.63;7.10;;;;;;;;;;6186892;23;20027;-60
2023/12/27 23:58:02;;;;;;;12.90;7.15;;;;;;;;;;6186503;23;20095;-60
